PMV weather

Del Caribe Santiago Mariño International Airport
Isla Margarita, Nueva Esparta, Venezuela

Public forecast

Using degrees Celsius for public forecast. Weather courtesy of forecast.io.

Current aviation weather report (METAR) for Del Caribe Santiago Mariño International Airport

Retrieved 2019/10/20 03:00 UTC (2 hours ago):

SVMG 200300Z /////KT 9999 FEW010 SCT080 27/24 Q1011 NOSIG

Aviation forecast (TAF) for Del Caribe Santiago Mariño International Airport

Retrieved 2019-10-20 00:11 UTC (5 hours ago):

TAF SVMG 192200Z 2000/2100 09010KT 9000 DZ BKN016 TX33/18Z TN24/08Z TEMPO 2000/2004 09010KT 9000 DZ BKN016